Time;durP1;ratioP1;P1;durP2;ratioP2;P2;SDS_P1;SDS_P2;PMS_P1;PMS_P2;Temp;Humidity;BMP_temperature;BMP_pressure;BME280_temperature;BME280_humidity;BME280_pressure;Samples;Min_cycle;Max_cycle;Signal;HPM_P1;HPM_P2
2021/12/22 05:02:39;;;;;;;19.60;8.32;;;;;;;-3.36;87.58;100934.00;4511790;31;141359;-76
2021/12/22 05:05:26;;;;;;;17.17;7.22;;;;;;;-3.36;87.58;100934.00;4502502;31;34821;-76
2021/12/22 05:08:12;;;;;;;16.10;7.55;;;;;;;-2.78;85.04;100940.22;4506474;31;34729;-76
2021/12/22 05:10:59;;;;;;;14.90;6.60;;;;;;;-2.11;80.67;100938.91;4494824;31;35956;-77
2021/12/22 05:13:45;;;;;;;18.42;6.82;;;;;;;-1.91;77.83;100928.28;4490876;31;34494;-76
2021/12/22 05:16:32;;;;;;;14.95;7.10;;;;;;;-1.88;76.74;100935.97;4508593;31;33022;-77
2021/12/22 05:19:18;;;;;;;16.10;6.28;;;;;;;-1.32;75.62;100931.47;4504369;31;34575;-76
2021/12/22 05:22:04;;;;;;;17.00;7.28;;;;;;;-1.24;74.38;100936.69;4504212;31;36060;-76
2021/12/22 05:24:51;;;;;;;12.88;6.03;;;;;;;-0.86;71.84;100939.69;4501722;31;35315;-76
2021/12/22 05:27:37;;;;;;;12.15;6.05;;;;;;;-0.82;71.19;100942.81;4503551;31;35052;-76
2021/12/22 05:30:23;;;;;;;11.35;5.60;;;;;;;-0.81;70.30;100933.69;4497455;31;35583;-76
2021/12/22 05:33:09;;;;;;;14.70;6.93;;;;;;;-0.62;69.20;100943.66;4493578;31;35037;-77
2021/12/22 05:36:00;;;;;;;16.40;6.47;;;;;;;-0.55;68.44;100946.34;4492121;31;34557;-76
2021/12/22 05:38:47;;;;;;;12.18;6.22;;;;;;;-0.97;69.32;100941.13;4493592;31;34176;-76
2021/12/22 05:41:35;;;;;;;14.95;6.80;;;;;;;-0.31;68.11;100947.62;4506518;31;34635;-76
2021/12/22 05:44:22;;;;;;;14.60;6.40;;;;;;;-0.24;67.37;100951.97;4506903;31;35044;-76
2021/12/22 05:47:09;;;;;;;14.73;6.28;;;;;;;-0.15;66.82;100952.56;4481585;31;34522;-76
2021/12/22 05:49:55;;;;;;;14.15;6.45;;;;;;;-0.04;66.08;100954.63;4502681;31;34140;-76
2021/12/22 05:52:41;;;;;;;11.65;6.20;;;;;;;-0.03;65.41;100950.94;4506584;31;35581;-76
2021/12/22 05:55:27;;;;;;;14.07;6.05;;;;;;;-0.04;65.12;100954.63;4501537;31;36059;-77
2021/12/22 05:58:14;;;;;;;12.32;6.57;;;;;;;-0.02;65.40;100952.56;4496888;31;34459;-76
2021/12/22 06:01:00;;;;;;;14.18;6.22;;;;;;;-0.03;65.54;100959.00;4502620;31;35151;-76
2021/12/22 06:03:46;;;;;;;13.45;6.47;;;;;;;-0.12;65.43;100964.81;4493075;31;34601;-76
2021/12/22 06:06:33;;;;;;;15.35;6.70;;;;;;;-0.46;66.77;100961.28;4498702;31;34935;-77
2021/12/22 06:09:22;;;;;;;14.30;6.35;;;;;;;-0.35;66.70;100970.59;4485231;32;34500;-77
2021/12/22 06:12:08;;;;;;;15.50;5.93;;;;;;;-0.08;66.15;100969.59;4496852;31;34169;-76
2021/12/22 06:14:55;;;;;;;14.65;6.80;;;;;;;0.02;65.36;100971.84;4491010;31;34598;-76
2021/12/22 06:17:41;;;;;;;15.98;7.22;;;;;;;0.08;64.84;100981.78;4489046;31;35018;-76
2021/12/22 06:20:28;;;;;;;15.07;7.05;;;;;;;-0.14;65.45;100994.66;4486843;32;34630;-76
2021/12/22 06:23:14;;;;;;;14.75;6.93;;;;;;;0.02;65.36;100987.19;4485699;31;34969;-75
2021/12/22 06:26:03;;;;;;;14.90;7.50;;;;;;;0.10;65.01;100990.50;4479181;31;34376;-78
2021/12/22 06:28:50;;;;;;;13.32;6.62;;;;;;;0.12;63.97;100985.72;4489510;31;34842;-76
2021/12/22 06:31:37;;;;;;;16.12;7.18;;;;;;;-0.04;64.51;100992.38;4484516;31;35468;-76
2021/12/22 06:34:23;;;;;;;15.35;7.65;;;;;;;0.01;65.12;100996.31;4480375;31;35125;-76
2021/12/22 06:37:12;;;;;;;16.52;8.60;;;;;;;0.17;65.06;101001.25;4491309;31;34730;-76
2021/12/22 06:39:58;;;;;;;17.30;8.82;;;;;;;0.22;64.99;101006.84;4481895;31;35994;-76
2021/12/22 06:42:45;;;;;;;19.48;10.10;;;;;;;0.22;64.43;101002.28;4484226;31;34531;-76
2021/12/22 06:45:31;;;;;;;22.13;11.23;;;;;;;0.17;64.42;101020.97;4492365;31;34231;-76
2021/12/22 06:48:18;;;;;;;24.25;12.75;;;;;;;0.14;64.49;101015.16;4490590;31;34615;-77
2021/12/22 06:51:03;;;;;;;84.72;34.20;;;;;;;0.02;65.33;101030.31;4494936;31;35675;-76
2021/12/22 06:53:50;;;;;;;83.90;34.40;;;;;;;0.31;64.50;101029.84;4485765;31;34508;-76
2021/12/22 06:56:38;;;;;;;66.55;28.83;;;;;;;0.31;64.28;101024.47;4492984;31;34235;-76
2021/12/22 06:59:24;;;;;;;77.68;32.67;;;;;;;0.33;63.88;101024.28;4493292;31;35631;-75
2021/12/22 07:02:10;;;;;;;63.28;27.90;;;;;;;0.05;64.60;101032.56;4490946;31;34979;-76
2021/12/22 07:04:57;;;;;;;50.28;21.80;;;;;;;-0.01;65.27;101026.97;4491113;31;34493;-75
2021/12/22 07:07:57;;;;;;;40.78;18.27;;;;;;;0.01;65.26;101036.75;4486480;32;35072;-75
2021/12/22 07:10:43;;;;;;;32.30;15.15;;;;;;;-0.29;66.04;101042.50;4490587;31;34748;-75
2021/12/22 07:13:30;;;;;;;28.45;13.60;;;;;;;-0.43;66.83;101043.50;4479318;32;36044;-76
2021/12/22 07:16:17;;;;;;;21.87;11.27;;;;;;;-0.50;67.25;101038.13;4478515;31;34473;-75
2021/12/22 07:19:03;;;;;;;21.35;11.00;;;;;;;-0.37;67.43;101038.16;4499007;31;34126;-75
2021/12/22 07:21:49;;;;;;;25.58;12.35;;;;;;;-0.20;67.05;101043.94;4485935;31;35584;-77
2021/12/22 07:24:36;;;;;;;24.17;11.20;;;;;;;-0.09;66.48;101040.66;4490073;31;33968;-75
2021/12/22 07:27:22;;;;;;;21.30;9.95;;;;;;;-0.07;65.49;101043.97;4494303;31;34595;-76
2021/12/22 07:30:09;;;;;;;20.40;10.00;;;;;;;-0.08;65.53;101047.72;4480908;32;35032;-76
2021/12/22 07:32:55;;;;;;;21.67;10.20;;;;;;;0.02;65.12;101046.47;4488189;31;35591;-76
2021/12/22 07:35:46;;;;;;;22.02;10.35;;;;;;;0.03;64.65;101042.72;4493186;31;34961;-76
2021/12/22 07:38:39;;;;;;;18.60;9.45;;;;;;;-0.01;65.10;101045.84;4483351;31;34570;-76
2021/12/22 07:41:27;;;;;;;17.20;9.15;;;;;;;-0.18;66.11;101049.97;4488878;31;34191;-75
2021/12/22 07:44:14;;;;;;;18.55;9.88;;;;;;;0.14;65.81;101047.50;4488444;31;34701;-76
2021/12/22 07:47:00;;;;;;;19.65;9.43;;;;;;;0.19;65.54;101053.09;4488364;31;35086;-75
2021/12/22 07:49:47;;;;;;;19.02;9.00;;;;;;;0.04;65.45;101055.19;4482161;31;34460;-76
2021/12/22 07:52:33;;;;;;;16.92;8.05;;;;;;;-0.73;67.52;101060.84;4482437;31;34093;-76
2021/12/22 07:55:19;;;;;;;17.20;8.10;;;;;;;0.01;63.81;101058.28;4494590;31;34716;-76
2021/12/22 07:58:07;;;;;;;15.10;7.70;;;;;;;0.28;63.41;101067.19;4483466;31;35959;-76
2021/12/22 08:00:55;;;;;;;14.93;6.85;;;;;;;-0.06;63.27;101079.81;4480020;31;34626;-76
2021/12/22 08:03:41;;;;;;;13.68;7.05;;;;;;;0.42;61.11;101075.06;4478256;31;34153;-76
2021/12/22 08:06:30;;;;;;;13.35;6.43;;;;;;;0.61;60.40;101076.09;4489232;31;35168;-76
2021/12/22 08:09:16;;;;;;;16.70;7.55;;;;;;;0.02;61.62;101078.81;4495293;31;35065;-76
2021/12/22 08:12:06;;;;;;;18.37;9.00;;;;;;;0.09;62.00;101074.25;4490448;31;35436;-76
2021/12/22 08:14:52;;;;;;;16.80;7.72;;;;;;;0.51;62.08;101082.94;4473168;31;34158;-76
2021/12/22 08:17:39;;;;;;;18.00;8.65;;;;;;;0.79;60.50;101080.81;4488113;31;34165;-76
2021/12/22 08:20:25;;;;;;;16.77;7.97;;;;;;;0.62;60.93;101085.81;4488981;31;35046;-78
2021/12/22 08:23:11;;;;;;;19.12;9.05;;;;;;;0.61;60.82;101086.06;4490134;31;35307;-77
2021/12/22 08:25:58;;;;;;;16.08;7.57;;;;;;;0.43;60.88;101081.31;4490460;31;34998;-78
2021/12/22 08:28:48;;;;;;;13.98;6.65;;;;;;;-0.63;63.67;101092.75;4489245;31;34672;-78
2021/12/22 08:31:35;;;;;;;16.12;7.45;;;;;;;-0.32;64.58;101088.69;4489808;31;36502;-77
2021/12/22 08:34:27;;;;;;;13.35;6.35;;;;;;;0.60;60.37;101097.87;4469379;31;34477;-77
2021/12/22 08:40:19;;;;;;;13.75;6.75;;;;;;;1.18;58.03;101103.34;4482403;31;34773;-78
2021/12/22 08:43:05;;;;;;;17.40;6.70;;;;;;;0.13;59.63;101103.28;4479733;32;34862;-78
2021/12/22 08:45:51;;;;;;;16.92;7.45;;;;;;;0.63;59.29;101103.69;4483336;31;33931;-77
2021/12/22 08:48:38;;;;;;;14.43;6.68;;;;;;;0.20;60.96;101106.00;4482270;31;34096;-77
2021/12/22 08:51:24;;;;;;;15.45;6.15;;;;;;;0.94;59.07;101109.44;4493581;31;34594;-78
2021/12/22 08:54:11;;;;;;;14.15;6.07;;;;;;;1.33;56.80;101101.19;4492816;31;34978;-77
2021/12/22 08:56:57;;;;;;;14.80;6.65;;;;;;;1.38;56.65;101110.53;4468374;31;35859;-78
2021/12/22 08:59:44;;;;;;;12.52;5.75;;;;;;;1.03;58.01;101113.56;4489940;31;34014;-77
2021/12/22 09:02:30;;;;;;;12.30;6.28;;;;;;;1.44;55.07;101109.69;4489021;31;34512;-78
2021/12/22 09:05:17;;;;;;;13.50;5.75;;;;;;;1.18;55.94;101116.03;4492208;31;36354;-78
2021/12/22 09:08:03;;;;;;;12.77;6.20;;;;;;;1.13;55.79;101108.53;4493044;31;34565;-78
2021/12/22 09:10:52;;;;;;;14.68;6.60;;;;;;;1.17;55.26;101112.50;4489380;31;33214;-78
2021/12/22 09:13:39;;;;;;;17.73;7.03;;;;;;;1.34;55.59;101107.44;4494303;31;34603;-78
2021/12/22 09:16:26;;;;;;;14.23;7.07;;;;;;;1.23;55.75;101106.25;4487656;31;35664;-78
2021/12/22 09:19:12;;;;;;;20.45;8.80;;;;;;;1.32;56.14;101096.03;4491096;31;34472;-78
2021/12/22 09:21:58;;;;;;;17.95;7.57;;;;;;;1.92;54.89;101106.50;4489967;31;34220;-78
2021/12/22 09:24:45;;;;;;;18.12;7.50;;;;;;;1.79;53.30;101110.12;4479532;31;34563;-78
2021/12/22 09:27:31;;;;;;;19.65;8.25;;;;;;;1.73;53.38;101097.47;4479116;31;35057;-78
2021/12/22 09:30:18;;;;;;;13.48;6.43;;;;;;;1.98;52.29;101109.16;4484231;31;34274;-79
2021/12/22 09:33:13;;;;;;;12.32;5.78;;;;;;;2.12;51.50;101114.50;4479826;31;35250;-79
2021/12/22 09:36:01;;;;;;;14.43;6.10;;;;;;;2.14;51.16;101115.94;4476683;31;34246;-79
2021/12/22 09:38:48;;;;;;;12.40;5.87;;;;;;;1.53;51.33;101108.37;4476754;31;36358;-79
2021/12/22 09:41:34;;;;;;;11.55;5.43;;;;;;;1.83;51.13;101118.63;4477401;31;34285;-78
2021/12/22 09:44:21;;;;;;;15.57;6.15;;;;;;;1.72;51.92;101110.16;4479420;31;34145;-77
2021/12/22 09:47:07;;;;;;;13.55;5.97;;;;;;;1.86;51.93;101102.81;4485159;31;34409;-78
2021/12/22 09:50:11;;;;;;;11.57;6.35;;;;;;;2.14;52.14;101104.28;4478990;31;35000;-78
2021/12/22 09:52:58;;;;;;;14.00;6.85;;;;;;;1.82;51.05;101101.56;4480128;31;34412;-78
2021/12/22 09:55:44;;;;;;;10.25;5.68;;;;;;;1.46;52.93;101096.81;4487490;31;33783;-78
2021/12/22 09:58:31;;;;;;;12.23;5.32;;;;;;;1.54;50.87;101093.84;4487558;31;34194;-79
2021/12/22 10:01:23;;;;;;;11.60;5.28;;;;;;;1.84;50.12;101096.78;4490759;31;35002;-79
2021/12/22 10:04:10;;;;;;;14.18;5.87;;;;;;;1.80;50.30;101096.41;4486193;31;35158;-79
2021/12/22 10:06:56;;;;;;;11.82;4.97;;;;;;;1.40;51.13;101097.66;4479006;31;34272;-79
2021/12/22 10:09:44;;;;;;;11.02;5.82;;;;;;;1.85;49.61;101094.91;4464260;31;34521;-79
2021/12/22 10:12:30;;;;;;;13.77;5.55;;;;;;;2.07;49.25;101095.38;4488397;31;34573;-79
2021/12/22 10:15:17;;;;;;;15.52;6.90;;;;;;;1.69;49.83;101096.25;4489425;31;35400;-79
2021/12/22 10:18:23;;;;;;;15.75;6.78;;;;;;;1.74;51.14;101099.16;4486041;31;34216;-79
2021/12/22 10:21:17;;;;;;;16.27;7.35;;;;;;;1.83;51.91;101089.72;4487559;31;34634;-79
2021/12/22 10:24:06;;;;;;;14.90;7.15;;;;;;;1.84;52.21;101094.09;4476807;31;35010;-79
2021/12/22 10:27:04;;;;;;;13.27;7.28;;;;;;;1.69;52.98;101097.09;4488957;31;32429;-79
2021/12/22 10:29:51;;;;;;;14.27;6.97;;;;;;;1.57;52.05;101093.41;4477407;31;35473;-79
2021/12/22 10:32:37;;;;;;;12.63;6.78;;;;;;;1.55;51.91;101092.81;4477912;31;34626;-79
2021/12/22 10:35:32;;;;;;;16.23;6.97;;;;;;;1.73;52.36;101082.09;4485689;31;35070;-78
2021/12/22 10:38:22;;;;;;;19.33;6.75;;;;;;;1.78;51.79;101084.97;4466586;31;34526;-79
2021/12/22 10:41:11;;;;;;;15.75;5.80;;;;;;;1.40;51.51;101086.84;4477958;31;35049;-78
2021/12/22 10:43:58;;;;;;;12.37;6.00;;;;;;;1.44;50.46;101079.97;4465862;31;33352;-78
2021/12/22 10:46:46;;;;;;;11.25;5.28;;;;;;;1.33;51.11;101087.69;4492900;31;34654;-78
2021/12/22 10:49:40;;;;;;;15.35;6.15;;;;;;;1.22;50.50;101077.56;4473388;31;34619;-79
2021/12/22 10:52:26;;;;;;;13.88;5.75;;;;;;;1.43;51.07;101078.31;4487414;31;35120;-79
2021/12/22 10:55:14;;;;;;;14.25;6.45;;;;;;;1.37;50.83;101077.31;4477023;31;34130;-80
2021/12/22 10:58:00;;;;;;;13.73;5.95;;;;;;;1.11;51.68;101083.63;4478298;31;32689;-80
2021/12/22 11:01:14;;;;;;;13.10;6.82;;;;;;;0.05;54.18;101076.53;4487622;31;34533;-79
2021/12/22 11:04:04;;;;;;;17.20;8.07;;;;;;;0.69;53.26;101080.44;4486135;31;34180;-79
2021/12/22 11:06:53;;;;;;;13.25;6.75;;;;;;;1.30;51.89;101077.31;4481687;31;34883;-79
2021/12/22 11:09:40;;;;;;;16.02;7.40;;;;;;;1.48;51.01;101068.53;4485222;31;34626;-78
2021/12/22 11:12:34;;;;;;;17.95;7.37;;;;;;;1.58;51.98;101055.38;4484143;31;34631;-80
2021/12/22 11:15:25;;;;;;;18.50;7.93;;;;;;;0.30;54.75;101071.34;4475456;31;34078;-78
2021/12/22 11:18:26;;;;;;;14.30;7.18;;;;;;;0.93;53.47;101067.28;4485849;31;35646;-78
2021/12/22 11:21:30;;;;;;;19.08;7.57;;;;;;;1.25;52.74;101066.34;4476353;31;34974;-82
2021/12/22 11:24:16;;;;;;;16.50;7.05;;;;;;;1.29;52.16;101062.19;4488450;31;34691;-80
2021/12/22 11:27:04;;;;;;;18.60;7.25;;;;;;;1.10;53.02;101063.91;4483107;31;34056;-83
2021/12/22 11:29:54;;;;;;;14.27;7.90;;;;;;;1.60;52.11;101068.66;4474065;31;35450;-81
2021/12/22 11:32:43;;;;;;;16.12;8.10;;;;;;;1.34;52.05;101056.97;4475474;31;34457;-82
2021/12/22 11:35:31;;;;;;;17.30;8.35;;;;;;;0.83;53.61;101060.47;4481763;31;34492;-82
2021/12/22 11:38:17;;;;;;;17.62;7.87;;;;;;;1.21;53.40;101057.00;4469491;31;34175;-81
2021/12/22 11:41:19;;;;;;;19.65;8.45;;;;;;;0.29;54.43;101053.53;4478723;31;34570;-80
2021/12/22 11:44:05;;;;;;;18.08;8.35;;;;;;;1.12;54.46;101052.91;4488867;31;34526;-81
2021/12/22 11:46:56;;;;;;;15.05;7.87;;;;;;;1.66;52.51;101043.47;4477302;31;34526;-80
2021/12/22 11:50:17;;;;;;;21.42;8.63;;;;;;;2.02;51.08;101047.37;4475045;31;34895;-81
2021/12/22 11:53:08;;;;;;;20.37;8.38;;;;;;;1.74;51.01;101045.09;4441727;31;34516;-80
2021/12/22 11:55:57;;;;;;;15.68;8.32;;;;;;;0.24;55.15;101041.69;4489008;31;34579;-80
2021/12/22 11:58:48;;;;;;;19.65;8.73;;;;;;;1.02;53.98;101039.03;4477793;31;34420;-80
2021/12/22 12:01:34;;;;;;;17.08;8.02;;;;;;;-0.19;56.94;101040.25;4461710;32;33747;-80
2021/12/22 12:04:21;;;;;;;16.90;7.95;;;;;;;-0.37;58.41;101040.00;4453353;32;35632;-83
2021/12/22 12:07:07;;;;;;;16.73;8.68;;;;;;;-0.36;58.79;101041.66;4452726;32;34590;-82
2021/12/22 12:09:53;;;;;;;16.77;7.57;;;;;;;-0.25;58.48;101041.06;4453893;32;34607;-83
2021/12/22 12:12:47;;;;;;;17.55;8.00;;;;;;;0.57;56.42;101033.53;4448127;32;34253;-82
2021/12/22 12:22:42;;;;;;;13.60;6.62;;;;;;;0.35;57.22;101030.28;4462287;32;34483;-80
2021/12/22 12:25:33;;;;;;;16.60;7.65;;;;;;;1.02;54.96;101025.53;4450949;32;34045;-81
2021/12/22 12:28:20;;;;;;;;;;;;;;;1.51;54.13;101038.38;4455116;32;34587;-81
2021/12/22 12:31:06;;;;;;;14.57;7.03;;;;;;;1.05;53.29;101030.50;4461217;32;35236;-81
2021/12/22 12:33:53;;;;;;;16.33;6.93;;;;;;;1.28;53.75;101033.53;4452330;32;34562;-78
2021/12/22 12:36:39;;;;;;;16.73;7.97;;;;;;;0.94;53.91;101029.31;4455696;32;34079;-78
2021/12/22 12:39:54;;;;;;;16.12;7.72;;;;;;;1.49;53.37;101021.56;4447908;32;34625;-80
2021/12/22 12:42:59;;;;;;;18.62;7.87;;;;;;;1.21;53.44;101015.69;4458766;32;35645;-79
2021/12/22 12:45:47;;;;;;;16.60;7.93;;;;;;;1.76;52.89;101016.78;4452319;32;34297;-81
2021/12/22 12:48:35;;;;;;;16.67;7.82;;;;;;;1.91;52.33;101027.31;4455671;32;35097;-81
2021/12/22 12:51:33;;;;;;;16.45;7.28;;;;;;;2.04;51.90;101018.25;4459435;32;34666;-78
2021/12/22 12:54:21;;;;;;;17.20;8.27;;;;;;;2.03;52.58;101019.31;4452436;32;35268;-83
2021/12/22 12:57:13;;;;;;;15.90;7.75;;;;;;;2.45;51.76;101024.97;4455583;32;34565;-83
2021/12/22 13:00:05;;;;;;;15.80;7.60;;;;;;;2.27;50.81;101022.22;4449507;32;33836;-81
2021/12/22 13:03:01;;;;;;;17.23;8.70;;;;;;;2.46;51.50;101016.63;4453510;32;34423;-81
2021/12/22 13:05:47;;;;;;;16.58;8.25;;;;;;;2.19;51.34;101020.59;4459864;32;35260;-80
2021/12/22 13:08:35;;;;;;;16.77;7.82;;;;;;;1.46;52.90;101018.47;4454204;32;34547;-80
2021/12/22 13:11:22;;;;;;;14.87;7.43;;;;;;;1.51;54.13;101024.06;4448510;32;34300;-80
2021/12/22 13:17:53;;;;;;;15.80;8.52;;;;;;;2.16;52.29;101021.91;4452464;32;35735;-81
2021/12/22 13:20:41;;;;;;;17.20;9.18;;;;;;;2.30;52.06;101021.75;4460976;32;35113;-80
2021/12/22 13:23:31;;;;;;;19.60;8.60;;;;;;;2.46;51.50;101019.31;4441362;32;35097;-80
2021/12/22 13:26:18;;;;;;;18.58;8.43;;;;;;;2.06;52.42;101018.88;4459196;32;35514;-81
2021/12/22 13:29:04;;;;;;;18.27;8.90;;;;;;;2.38;51.81;101013.37;4449627;32;36028;-81
2021/12/22 13:32:07;;;;;;;18.73;8.57;;;;;;;2.39;51.47;101010.47;4455746;32;35402;-81
2021/12/22 13:34:58;;;;;;;20.45;10.25;;;;;;;2.48;51.64;101013.69;4452205;32;33182;-80
2021/12/22 13:37:49;;;;;;;18.50;9.70;;;;;;;2.37;51.72;101009.03;4457225;32;34544;-80
2021/12/22 13:40:40;;;;;;;19.17;8.68;;;;;;;2.12;53.13;101011.75;4459604;32;34797;-82
2021/12/22 13:43:35;;;;;;;25.67;11.73;;;;;;;2.32;52.65;101014.25;4459984;32;35145;-81
2021/12/22 13:46:31;;;;;;;35.80;12.45;;;;;;;1.90;53.78;101019.41;4455491;32;32946;-80
2021/12/22 13:49:18;;;;;;;21.70;10.15;;;;;;;2.39;52.67;101023.13;4451638;32;35627;-83
2021/12/22 13:52:05;;;;;;;17.83;8.68;;;;;;;2.21;53.05;101023.94;4458777;32;35511;-80
2021/12/22 13:54:51;;;;;;;17.12;8.93;;;;;;;2.84;51.07;101020.16;4452392;32;34908;-79
2021/12/22 13:57:38;;;;;;;19.27;9.57;;;;;;;2.54;51.71;101018.22;4453305;32;35094;-79
2021/12/22 14:00:24;;;;;;;17.42;8.88;;;;;;;2.74;51.49;101022.59;4455337;31;35068;-79
2021/12/22 14:03:17;;;;;;;18.83;9.40;;;;;;;2.50;52.35;101016.16;4487149;31;34951;-79
2021/12/22 14:06:08;;;;;;;20.52;10.02;;;;;;;2.50;52.99;101022.41;4486441;31;34971;-78
2021/12/22 14:09:34;;;;;;;22.20;10.85;;;;;;;2.57;52.67;101023.16;4474047;31;33640;-80
2021/12/22 14:12:27;;;;;;;19.87;9.13;;;;;;;2.67;52.42;101030.75;4485682;31;34999;-79
2021/12/22 14:15:14;;;;;;;20.95;10.35;;;;;;;2.78;51.74;101021.88;4482848;31;34602;-81
2021/12/22 14:18:00;;;;;;;19.33;9.20;;;;;;;2.60;52.13;101017.31;4479337;31;34041;-81
2021/12/22 14:20:46;;;;;;;16.10;8.55;;;;;;;2.70;52.59;101014.06;4468912;31;34112;-82
2021/12/22 14:23:33;;;;;;;19.05;8.77;;;;;;;2.58;52.45;101021.28;4481631;31;34785;-82
2021/12/22 14:26:27;;;;;;;16.75;9.10;;;;;;;2.42;53.15;101014.56;4484739;31;35020;-82
2021/12/22 14:29:14;;;;;;;16.73;9.32;;;;;;;1.55;55.57;101012.56;4489704;31;34566;-82
2021/12/22 14:32:04;;;;;;;17.60;9.25;;;;;;;1.68;55.94;101018.94;4475363;31;33892;-82
2021/12/22 14:34:58;;;;;;;17.77;9.23;;;;;;;2.17;54.16;101026.25;4485041;31;34326;-82
2021/12/22 14:37:45;;;;;;;23.48;11.02;;;;;;;2.63;52.22;101011.44;4484674;31;35455;-81
2021/12/22 14:40:35;;;;;;;22.37;10.63;;;;;;;2.62;52.40;101020.63;4474780;31;32939;-82
2021/12/22 14:43:22;;;;;;;16.65;8.40;;;;;;;2.55;52.19;101017.16;4484280;31;34017;-81
2021/12/22 14:46:13;;;;;;;17.73;8.63;;;;;;;2.39;53.05;101015.00;4471060;31;34630;-78
2021/12/22 14:49:00;;;;;;;15.90;8.75;;;;;;;2.68;52.15;101018.91;4473477;31;34534;-80
2021/12/22 14:51:48;;;;;;;19.92;9.73;;;;;;;2.73;51.57;101016.31;4473725;31;35357;-81
2021/12/22 14:54:34;;;;;;;18.70;8.52;;;;;;;2.59;51.98;101009.41;4472085;31;34127;-81
2021/12/22 14:57:24;;;;;;;17.40;8.82;;;;;;;2.52;52.36;101008.66;4483985;31;34437;-82
2021/12/22 15:00:11;;;;;;;19.55;9.60;;;;;;;2.39;52.54;101013.16;4482791;31;35207;-82
2021/12/22 15:02:59;;;;;;;17.50;9.05;;;;;;;2.51;52.56;101018.66;4486399;31;35358;-80
2021/12/22 15:05:51;;;;;;;19.77;9.85;;;;;;;2.52;52.33;101014.06;4487339;31;34220;-80
2021/12/22 15:08:38;;;;;;;21.83;10.15;;;;;;;2.31;52.83;101007.22;4490226;31;34574;-80
2021/12/22 15:11:26;;;;;;;23.52;10.13;;;;;;;2.50;52.43;101006.16;4466937;31;34554;-80
2021/12/22 15:14:13;;;;;;;22.20;10.10;;;;;;;2.43;52.43;101005.41;4479460;31;34145;-80
2021/12/22 15:17:03;;;;;;;21.80;10.07;;;;;;;2.22;53.03;101009.34;4475725;31;33705;-80
2021/12/22 15:19:49;;;;;;;23.02;9.52;;;;;;;2.09;53.61;101010.31;4482527;31;33548;-80
2021/12/22 15:22:35;;;;;;;19.23;10.43;;;;;;;1.92;54.06;101015.44;4477370;31;36489;-79
2021/12/22 15:25:21;;;;;;;19.58;9.13;;;;;;;2.05;53.80;101006.41;4480868;31;33404;-80
2021/12/22 15:28:09;;;;;;;19.27;10.02;;;;;;;2.12;53.77;101011.75;4474008;31;35000;-80
2021/12/22 15:30:56;;;;;;;17.27;8.93;;;;;;;2.03;53.81;101012.00;4483882;31;35246;-79
2021/12/22 15:33:42;;;;;;;21.17;10.35;;;;;;;1.93;54.03;101016.25;4485658;31;34953;-79
2021/12/22 15:36:29;;;;;;;82.07;39.08;;;;;;;1.87;54.42;101014.44;4472923;31;34479;-80
2021/12/22 15:39:15;;;;;;;29.30;13.90;;;;;;;1.69;54.53;101017.91;4484059;31;34306;-79
2021/12/22 15:42:02;;;;;;;29.02;13.25;;;;;;;1.74;54.58;101010.78;4486161;31;34563;-78
2021/12/22 15:44:48;;;;;;;24.70;10.63;;;;;;;1.71;54.75;101018.53;4483997;31;36035;-79
2021/12/22 15:47:35;;;;;;;27.05;13.80;;;;;;;1.68;54.79;101014.38;4476687;31;34088;-79
2021/12/22 15:50:24;;;;;;;29.00;15.45;;;;;;;1.61;55.07;101018.97;4473043;31;34183;-79
2021/12/22 15:53:11;;;;;;;41.55;20.80;;;;;;;1.53;55.38;101013.84;4482094;31;35484;-78
2021/12/22 15:55:58;;;;;;;46.85;25.73;;;;;;;1.42;55.69;101015.34;4474261;31;35594;-79
2021/12/22 15:58:44;;;;;;;48.45;24.33;;;;;;;1.32;56.03;101021.22;4462417;31;34560;-79
2021/12/22 16:01:33;;;;;;;39.70;19.85;;;;;;;1.26;56.39;101032.91;4470041;31;32919;-78
2021/12/22 16:04:19;;;;;;;36.30;16.80;;;;;;;1.07;56.96;101023.03;4473838;31;34278;-79
2021/12/22 16:07:06;;;;;;;36.15;20.30;;;;;;;0.75;57.83;101025.62;4472257;31;34929;-78
2021/12/22 16:09:52;;;;;;;37.53;21.12;;;;;;;0.66;58.32;101030.44;4483585;31;34625;-79
2021/12/22 16:12:39;;;;;;;46.05;23.05;;;;;;;0.60;58.57;101030.47;4486577;31;35075;-78
2021/12/22 16:15:27;;;;;;;44.22;23.27;;;;;;;0.49;58.97;101031.09;4483888;31;34627;-78
2021/12/22 16:18:13;;;;;;;51.28;24.95;;;;;;;0.47;59.37;101033.16;4483306;31;35120;-78
2021/12/22 16:21:00;;;;;;;49.25;24.23;;;;;;;0.71;59.09;101035.16;4489170;31;34348;-78
2021/12/22 16:24:02;;;;;;;53.78;25.55;;;;;;;0.84;58.61;101032.44;4478350;31;35112;-78
2021/12/22 16:26:50;;;;;;;51.35;25.85;;;;;;;0.90;58.35;101038.88;4485588;31;35682;-79
2021/12/22 16:29:39;;;;;;;52.55;26.85;;;;;;;0.94;58.06;101040.13;4463159;31;34952;-79
2021/12/22 16:32:26;;;;;;;57.97;27.40;;;;;;;0.85;58.43;101046.75;4474540;31;35090;-78
2021/12/22 16:35:19;;;;;;;65.00;30.95;;;;;;;0.90;58.33;101049.66;4465715;31;34167;-78
2021/12/22 16:38:05;;;;;;;60.45;30.15;;;;;;;0.93;58.06;101045.72;4474978;31;35647;-78
2021/12/22 16:40:52;;;;;;;69.05;33.15;;;;;;;0.83;58.28;101054.25;4485170;31;35195;-78
2021/12/22 16:43:38;;;;;;;60.17;31.08;;;;;;;0.61;59.04;101057.19;4488613;31;34611;-78
2021/12/22 16:46:24;;;;;;;69.60;33.05;;;;;;;0.47;59.54;101065.53;4478593;31;33175;-78
2021/12/22 16:49:14;;;;;;;79.47;37.55;;;;;;;0.46;59.56;101059.31;4486492;31;34712;-77
2021/12/22 16:52:03;;;;;;;69.78;32.38;;;;;;;0.60;59.50;101065.53;4476866;31;34910;-78
2021/12/22 16:54:50;;;;;;;63.20;31.33;;;;;;;0.77;58.65;101066.72;4477575;31;35175;-77
2021/12/22 16:57:36;;;;;;;68.18;32.85;;;;;;;0.64;58.91;101066.75;4484332;31;34267;-77
2021/12/22 17:00:23;;;;;;;78.28;33.85;;;;;;;0.50;59.32;101070.50;4468045;31;34185;-78
2021/12/22 17:03:09;;;;;;;76.47;34.78;;;;;;;0.37;59.65;101065.94;4475386;31;35537;-77
2021/12/22 17:05:57;;;;;;;77.82;32.90;;;;;;;0.23;60.23;101073.22;4464661;31;35494;-77
2021/12/22 17:08:47;;;;;;;69.80;32.55;;;;;;;0.24;60.22;101071.34;4485870;31;32914;-78
2021/12/22 17:11:36;;;;;;;65.95;31.60;;;;;;;0.10;60.56;101065.97;4480493;31;34638;-78
2021/12/22 17:14:22;;;;;;;68.97;32.35;;;;;;;-0.06;61.18;101067.22;4486290;31;35065;-78
2021/12/22 17:17:16;;;;;;;74.37;32.67;;;;;;;-0.37;62.67;101065.09;4482858;31;35104;-77
2021/12/22 17:20:03;;;;;;;74.62;33.63;;;;;;;-0.61;63.74;101068.31;4487024;31;35147;-77
2021/12/22 17:22:51;;;;;;;71.10;33.33;;;;;;;-0.19;62.30;101064.50;4469751;31;34265;-78
2021/12/22 17:25:38;;;;;;;80.05;36.03;;;;;;;-0.01;62.20;101062.00;4470189;31;34903;-78
2021/12/22 17:28:30;;;;;;;75.80;37.03;;;;;;;0.07;61.34;101052.06;4481235;31;34505;-78
2021/12/22 17:31:16;;;;;;;86.30;37.95;;;;;;;0.10;61.33;101057.03;4467746;31;35068;-78
2021/12/22 17:34:03;;;;;;;67.65;34.15;;;;;;;-0.01;61.44;101059.31;4479383;31;35093;-77
2021/12/22 17:36:49;;;;;;;79.75;35.38;;;;;;;0.12;60.90;101054.97;4490609;31;35980;-77
2021/12/22 17:39:36;;;;;;;136.70;56.37;;;;;;;0.02;61.01;101058.06;4488049;31;34533;-77
2021/12/22 17:42:25;;;;;;;161.43;68.72;;;;;;;0.09;60.93;101055.41;4493221;31;33949;-77
2021/12/22 17:45:13;;;;;;;138.90;58.85;;;;;;;0.15;60.36;101060.78;4479124;31;34566;-77
2021/12/22 17:47:59;;;;;;;120.05;54.47;;;;;;;-0.04;60.60;101056.22;4490628;31;35040;-76
2021/12/22 17:50:45;;;;;;;134.43;61.60;;;;;;;-0.03;60.74;101061.41;4491912;31;34628;-77
2021/12/22 17:53:32;;;;;;;128.75;58.28;;;;;;;-0.12;61.03;101054.53;4482070;31;35225;-77
2021/12/22 17:56:19;;;;;;;154.57;67.05;;;;;;;-0.12;60.99;101057.22;4491525;31;34630;-76
2021/12/22 17:59:05;;;;;;;146.55;64.10;;;;;;;-0.33;61.22;101052.84;4484075;31;35592;-77
2021/12/22 18:01:53;;;;;;;144.75;65.93;;;;;;;-0.16;61.04;101056.00;4491464;31;35467;-77
2021/12/22 18:04:40;;;;;;;128.77;59.22;;;;;;;-0.79;62.52;101060.81;4492709;31;34829;-77
2021/12/22 18:07:27;;;;;;;139.52;58.28;;;;;;;-0.34;61.43;101071.91;4488799;31;34586;-77
2021/12/22 18:10:14;;;;;;;126.07;56.22;;;;;;;-0.34;61.27;101071.91;4485646;31;35957;-77
2021/12/22 18:13:00;;;;;;;111.95;51.72;;;;;;;-0.39;61.53;101075.22;4493538;31;34435;-76